sensor_id;sensor_type;location;lat;lon;timestamp;pressure;altitude;pressure_sealevel;temperature;humidity
5679;BME280;2862;52.560;13.566;2023-03-04T00:03:35;100916.13;;;2.54;97.59
5679;BME280;2862;52.560;13.566;2023-03-04T00:13:40;100903.34;;;2.45;98.24
5679;BME280;2862;52.560;13.566;2023-03-04T00:23:43;100905.56;;;2.54;98.04
5679;BME280;2862;52.560;13.566;2023-03-04T00:33:48;100902.41;;;2.64;97.70
5679;BME280;2862;52.560;13.566;2023-03-04T00:43:51;100894.84;;;2.76;97.11
5679;BME280;2862;52.560;13.566;2023-03-04T00:53:56;100888.31;;;2.83;96.51
5679;BME280;2862;52.560;13.566;2023-03-04T01:04:01;100887.78;;;2.76;96.49
5679;BME280;2862;52.560;13.566;2023-03-04T01:14:05;100875.81;;;2.86;95.39
5679;BME280;2862;52.560;13.566;2023-03-04T01:24:08;100864.72;;;2.97;94.22
5679;BME280;2862;52.560;13.566;2023-03-04T01:34:15;100848.19;;;2.93;94.29
5679;BME280;2862;52.560;13.566;2023-03-04T01:44:19;100842.59;;;3.00;94.14
5679;BME280;2862;52.560;13.566;2023-03-04T01:54:24;100831.97;;;3.18;93.48
5679;BME280;2862;52.560;13.566;2023-03-04T02:04:29;100820.53;;;3.35;92.86
5679;BME280;2862;52.560;13.566;2023-03-04T02:14:33;100811.97;;;3.30;93.93
5679;BME280;2862;52.560;13.566;2023-03-04T02:24:40;100798.22;;;3.41;94.04
5679;BME280;2862;52.560;13.566;2023-03-04T02:34:49;100782.16;;;3.44;94.56
5679;BME280;2862;52.560;13.566;2023-03-04T02:44:58;100774.63;;;3.54;94.80
5679;BME280;2862;52.560;13.566;2023-03-04T02:55:05;100774.03;;;3.64;94.83
5679;BME280;2862;52.560;13.566;2023-03-04T03:05:09;100762.38;;;3.68;94.99
5679;BME280;2862;52.560;13.566;2023-03-04T03:15:15;100761.19;;;3.74;95.58
5679;BME280;2862;52.560;13.566;2023-03-04T03:25:19;100741.84;;;3.73;96.46
5679;BME280;2862;52.560;13.566;2023-03-04T03:35:24;100730.03;;;3.63;97.96
5679;BME280;2862;52.560;13.566;2023-03-04T03:45:27;100732.25;;;3.71;98.05
5679;BME280;2862;52.560;13.566;2023-03-04T03:55:31;100720.34;;;3.80;97.61
5679;BME280;2862;52.560;13.566;2023-03-04T04:05:35;100712.06;;;3.86;97.54
5679;BME280;2862;52.560;13.566;2023-03-04T04:15:39;100719.75;;;3.75;98.60
5679;BME280;2862;52.560;13.566;2023-03-04T04:25:43;100705.75;;;3.88;97.89
5679;BME280;2862;52.560;13.566;2023-03-04T04:35:48;100704.53;;;3.94;97.73
5679;BME280;2862;52.560;13.566;2023-03-04T04:45:50;100696.50;;;3.95;97.82
5679;BME280;2862;52.560;13.566;2023-03-04T04:55:55;100697.63;;;4.07;97.34
5679;BME280;2862;52.560;13.566;2023-03-04T05:05:58;100687.81;;;4.09;97.35
5679;BME280;2862;52.560;13.566;2023-03-04T05:16:02;100684.97;;;4.12;97.50
5679;BME280;2862;52.560;13.566;2023-03-04T05:26:08;100680.88;;;4.22;97.35
5679;BME280;2862;52.560;13.566;2023-03-04T05:36:12;100671.31;;;4.20;97.81
5679;BME280;2862;52.560;13.566;2023-03-04T05:46:18;100674.69;;;4.38;97.21
5679;BME280;2862;52.560;13.566;2023-03-04T05:56:27;100672.91;;;4.38;97.72
5679;BME280;2862;52.560;13.566;2023-03-04T06:06:32;100671.09;;;4.39;99.21
5679;BME280;2862;52.560;13.566;2023-03-04T06:16:37;100672.53;;;4.44;100.00
5679;BME280;2862;52.560;13.566;2023-03-04T06:26:40;100672.84;;;4.54;100.00
5679;BME280;2862;52.560;13.566;2023-03-04T06:36:45;100688.81;;;4.52;100.00
5679;BME280;2862;52.560;13.566;2023-03-04T06:46:49;100680.81;;;4.54;100.00
5679;BME280;2862;52.560;13.566;2023-03-04T06:56:53;100687.53;;;4.60;100.00
5679;BME280;2862;52.560;13.566;2023-03-04T07:06:57;100685.53;;;4.63;100.00
5679;BME280;2862;52.560;13.566;2023-03-04T07:17:01;100684.88;;;4.60;100.00
5679;BME280;2862;52.560;13.566;2023-03-04T07:27:04;100691.06;;;4.74;100.00
5679;BME280;2862;52.560;13.566;2023-03-04T07:37:09;100700.38;;;4.96;100.00
5679;BME280;2862;52.560;13.566;2023-03-04T07:47:12;100693.84;;;5.01;100.00
5679;BME280;2862;52.560;13.566;2023-03-04T07:57:17;100691.78;;;5.06;100.00
5679;BME280;2862;52.560;13.566;2023-03-04T08:07:20;100689.00;;;5.79;100.00
5679;BME280;2862;52.560;13.566;2023-03-04T08:17:24;100685.56;;;5.77;100.00
5679;BME280;2862;52.560;13.566;2023-03-04T08:27:30;100681.25;;;5.48;100.00
5679;BME280;2862;52.560;13.566;2023-03-04T08:37:34;100678.03;;;5.43;100.00
5679;BME280;2862;52.560;13.566;2023-03-04T08:47:37;100676.81;;;5.48;100.00
5679;BME280;2862;52.560;13.566;2023-03-04T08:57:41;100664.00;;;5.69;100.00
5679;BME280;2862;52.560;13.566;2023-03-04T09:07:44;100652.94;;;5.90;100.00
5679;BME280;2862;52.560;13.566;2023-03-04T09:17:49;100657.09;;;6.08;96.40
5679;BME280;2862;52.560;13.566;2023-03-04T09:27:54;100666.66;;;6.10;92.38
5679;BME280;2862;52.560;13.566;2023-03-04T09:37:59;100663.63;;;6.29;87.95
5679;BME280;2862;52.560;13.566;2023-03-04T09:48:04;100670.69;;;6.43;83.07
5679;BME280;2862;52.560;13.566;2023-03-04T09:58:18;100665.25;;;6.45;76.60
5679;BME280;2862;52.560;13.566;2023-03-04T10:08:33;100674.16;;;6.83;74.24
5679;BME280;2862;52.560;13.566;2023-03-04T10:18:45;100674.25;;;6.95;69.74
5679;BME280;2862;52.560;13.566;2023-03-04T10:28:50;100674.34;;;7.31;68.70
5679;BME280;2862;52.560;13.566;2023-03-04T10:39:00;100665.47;;;7.93;66.18
5679;BME280;2862;52.560;13.566;2023-03-04T10:49:03;100664.78;;;8.02;65.96
5679;BME280;2862;52.560;13.566;2023-03-04T10:59:41;100666.16;;;8.32;64.31
5679;BME280;2862;52.560;13.566;2023-03-04T11:09:45;100672.06;;;8.00;64.86
5679;BME280;2862;52.560;13.566;2023-03-04T11:19:55;100674.53;;;7.90;65.15
5679;BME280;2862;52.560;13.566;2023-03-04T11:30:15;100672.22;;;8.10;62.95
5679;BME280;2862;52.560;13.566;2023-03-04T11:40:28;100674.19;;;7.95;62.33
5679;BME280;2862;52.560;13.566;2023-03-04T11:50:42;100674.13;;;8.08;62.75
5679;BME280;2862;52.560;13.566;2023-03-04T12:00:52;100685.16;;;7.54;64.17
5679;BME280;2862;52.560;13.566;2023-03-04T12:11:02;100673.72;;;7.77;61.22
5679;BME280;2862;52.560;13.566;2023-03-04T12:21:16;100670.88;;;8.04;59.84
5679;BME280;2862;52.560;13.566;2023-03-04T12:31:32;100672.44;;;7.83;59.76
5679;BME280;2862;52.560;13.566;2023-03-04T12:41:43;100670.47;;;7.61;61.03
5679;BME280;2862;52.560;13.566;2023-03-04T12:51:55;100680.50;;;7.44;61.78
5679;BME280;2862;52.560;13.566;2023-03-04T13:02:24;100678.53;;;7.23;62.96
5679;BME280;2862;52.560;13.566;2023-03-04T13:12:45;100684.13;;;6.92;63.26
5679;BME280;2862;52.560;13.566;2023-03-04T13:22:57;100670.53;;;6.84;61.09
5679;BME280;2862;52.560;13.566;2023-03-04T13:54:50;100688.59;;;6.92;59.64
5679;BME280;2862;52.560;13.566;2023-03-04T14:05:00;100684.78;;;6.83;61.34
5679;BME280;2862;52.560;13.566;2023-03-04T14:15:21;100678.63;;;6.83;61.47
5679;BME280;2862;52.560;13.566;2023-03-04T14:25:27;100674.47;;;6.79;61.64
5679;BME280;2862;52.560;13.566;2023-03-04T14:35:32;100667.09;;;6.57;59.29
5679;BME280;2862;52.560;13.566;2023-03-04T14:45:35;100666.91;;;6.60;59.33
5679;BME280;2862;52.560;13.566;2023-03-04T14:55:53;100662.09;;;6.65;59.92
5679;BME280;2862;52.560;13.566;2023-03-04T15:06:15;100652.66;;;6.86;70.83
5679;BME280;2862;52.560;13.566;2023-03-04T15:16:20;100656.69;;;6.67;63.68
5679;BME280;2862;52.560;13.566;2023-03-04T15:26:24;100648.59;;;6.55;64.10
5679;BME280;2862;52.560;13.566;2023-03-04T15:36:29;100649.88;;;6.50;63.60
5679;BME280;2862;52.560;13.566;2023-03-04T15:46:32;100652.72;;;6.47;62.31
5679;BME280;2862;52.560;13.566;2023-03-04T15:56:38;100657.16;;;6.33;62.16
5679;BME280;2862;52.560;13.566;2023-03-04T16:06:41;100659.56;;;6.24;63.66
5679;BME280;2862;52.560;13.566;2023-03-04T16:16:46;100650.28;;;6.04;64.55
5679;BME280;2862;52.560;13.566;2023-03-04T16:26:53;100651.63;;;5.97;64.67
5679;BME280;2862;52.560;13.566;2023-03-04T16:36:58;100657.78;;;5.83;64.77
5679;BME280;2862;52.560;13.566;2023-03-04T16:47:02;100658.63;;;5.83;64.60
5679;BME280;2862;52.560;13.566;2023-03-04T16:57:08;100669.47;;;5.80;65.17
5679;BME280;2862;52.560;13.566;2023-03-04T17:07:14;100662.09;;;5.71;65.68
5679;BME280;2862;52.560;13.566;2023-03-04T17:17:18;100674.38;;;5.72;65.41
5679;BME280;2862;52.560;13.566;2023-03-04T17:27:21;100690.81;;;5.65;66.02
5679;BME280;2862;52.560;13.566;2023-03-04T17:37:26;100701.34;;;5.52;66.08
5679;BME280;2862;52.560;13.566;2023-03-04T17:47:29;100690.53;;;5.55;66.20
5679;BME280;2862;52.560;13.566;2023-03-04T17:57:35;100695.09;;;5.53;65.51
5679;BME280;2862;52.560;13.566;2023-03-04T18:07:38;100692.88;;;5.59;65.73
5679;BME280;2862;52.560;13.566;2023-03-04T18:17:42;100697.53;;;5.56;66.12
5679;BME280;2862;52.560;13.566;2023-03-04T18:27:46;100687.59;;;5.59;66.25
5679;BME280;2862;52.560;13.566;2023-03-04T18:37:50;100697.44;;;5.57;66.47
5679;BME280;2862;52.560;13.566;2023-03-04T18:47:53;100694.81;;;5.29;68.80
5679;BME280;2862;52.560;13.566;2023-03-04T18:57:58;100691.94;;;4.89;75.29
5679;BME280;2862;52.560;13.566;2023-03-04T19:08:02;100708.22;;;4.53;78.64
5679;BME280;2862;52.560;13.566;2023-03-04T19:18:07;100708.13;;;4.55;79.06
5679;BME280;2862;52.560;13.566;2023-03-04T19:28:10;100694.03;;;4.54;76.99
5679;BME280;2862;52.560;13.566;2023-03-04T19:38:14;100701.19;;;4.52;76.61
5679;BME280;2862;52.560;13.566;2023-03-04T19:48:17;100702.56;;;4.59;73.47
5679;BME280;2862;52.560;13.566;2023-03-04T19:58:21;100705.81;;;4.78;72.55
5679;BME280;2862;52.560;13.566;2023-03-04T20:08:25;100715.94;;;4.72;72.36
5679;BME280;2862;52.560;13.566;2023-03-04T20:18:29;100717.09;;;4.52;72.75
5679;BME280;2862;52.560;13.566;2023-03-04T20:28:32;100719.69;;;4.68;72.71
5679;BME280;2862;52.560;13.566;2023-03-04T20:38:36;100721.97;;;4.74;72.09
5679;BME280;2862;52.560;13.566;2023-03-04T20:48:39;100711.44;;;4.58;71.51
5679;BME280;2862;52.560;13.566;2023-03-04T20:58:43;100713.44;;;4.55;68.05
5679;BME280;2862;52.560;13.566;2023-03-04T21:09:07;100721.03;;;4.45;65.10
5679;BME280;2862;52.560;13.566;2023-03-04T21:19:18;100711.94;;;4.65;64.24
5679;BME280;2862;52.560;13.566;2023-03-04T21:29:23;100698.31;;;4.41;63.01
5679;BME280;2862;52.560;13.566;2023-03-04T21:39:29;100678.56;;;4.16;64.36
5679;BME280;2862;52.560;13.566;2023-03-04T21:49:33;100670.72;;;4.15;64.31
5679;BME280;2862;52.560;13.566;2023-03-04T21:59:40;100649.91;;;4.24;62.69
5679;BME280;2862;52.560;13.566;2023-03-04T22:09:43;100653.09;;;4.30;63.55
5679;BME280;2862;52.560;13.566;2023-03-04T22:19:47;100645.63;;;4.22;63.55
5679;BME280;2862;52.560;13.566;2023-03-04T22:29:50;100655.31;;;4.37;64.50
5679;BME280;2862;52.560;13.566;2023-03-04T22:39:55;100644.16;;;4.46;64.89
5679;BME280;2862;52.560;13.566;2023-03-04T22:49:58;100636.53;;;4.56;64.43
5679;BME280;2862;52.560;13.566;2023-03-04T23:00:04;100626.69;;;4.58;64.53
5679;BME280;2862;52.560;13.566;2023-03-04T23:10:19;100611.75;;;4.43;66.13
5679;BME280;2862;52.560;13.566;2023-03-04T23:20:23;100604.25;;;4.35;68.35
5679;BME280;2862;52.560;13.566;2023-03-04T23:30:27;100584.44;;;4.42;69.53
5679;BME280;2862;52.560;13.566;2023-03-04T23:40:32;100580.53;;;4.34;71.02
5679;BME280;2862;52.560;13.566;2023-03-04T23:50:35;100572.94;;;4.13;71.46
